Ana Sayfa
METAR-TAF:

METAR-TAF

Havaalanları :

Jasper County Airport (Bell Field)

Jasper, Teksas, Amerika Birleşik Devletleri

Enlem: 30-53-08N, Boylam: 094-02-05W, yükseklik: 65 m

Güncel hava durumu gözlemi

Rapor saat 14:15 UTC de 39 dakika önce yapıldı.
Sakin rüzgar
Sıcaklık 29°C
Nem 84%
Basınç 1021 hPa
Görüş mesafesi: 16.1 km
Açık gökyüzü

METAR: KJAS 081415Z AUTO 00000KT 10SM CLR 29/26 A3015 RMK AO2 T02850258

Saat: 09:54 (14:54 UTC)


TAF: eksik

4.000'den fazla havaalanı için hava durumu gözlemleri ve tahminleri (METAR ve TAF raporları).

Kullanılabilir istasyonlar harita üzerinde sarı ve kırmızı noktalarla gösterilir.

İstasyonun adını görmek için fareyi noktanın üzerinde gezdirin.

Sonrasında hava gözlem ve tahminlerini görmek için tıklayın.

Haritayı değiştirmek için: yaklaştırmak için siyah artı işaretli yeşil düğmeye ve uzaklaştırmak için de eksi işaretli düğmeye hızla tıklayın; bitişik haritalar için yeşil okları kullanın.


METAR-TAF: